Airfield :
LOGIN :

Register | Disclaimer

   EN    FR    IT 

 










Legend :    VFR   Marginal VFR   IFR   Intensive IFR   Very Intensive IFR
Visi :
Ceiling :
>= 8 km
>= 3000ft
5 to 8 km
1000 to 3000 ft
1500m to 5 km
500 to 1000 ft
800 to 1500m
200 to 500 ft
< 800m
< 200 ft
Symbols :   Thunderstorms  Fog  Heavy snow  Heavy precipitations  Wind > 20 kt
SIGMETs :     Misc.  Thunderstorms  Icing  Turbulence  Mountain Waves  Volcanic Ashes






- Airport Elevation : 7 ft
- IATA code : XHE


LFTH - Hyeres

CURRENT METAR :
  • 231130Z AUTO 08007KT 9999 OVC017 19/16 Q1018 BECMG RA

EXPIRED METARs :
  • 231100Z AUTO 08008KT 9999 OVC018 19/16 Q1018 BECMG RA
  • 231030Z AUTO 08008KT 9999 BKN017 OVC084 19/16 Q1018 BECMG RA
  • 231000Z AUTO 08010KT 040V100 9999 BKN017 OVC080 18/16 Q1018 BECMG RA
  • 230930Z AUTO 08010KT 060V120 9999 -RA BKN017 OVC080 18/17 Q1018 BECMG RA
  • 230900Z AUTO 08010KT 9999 -RA OVC017/// ///TCU 18/17 Q1018 BECMG RA OVC020

TAF TAF LFTH
Valid from the 23 at 09:00 until the 24 at 09:00 UTC


230800Z 2309/2409 08005KT 9999 RA OVC020
BECMG 2314/2316 BKN015
TEMPO 2314/2324 11005KT 6000 SHRA BKN010TCU
BECMG 2319/2321 26010KT
BECMG 2400/2402 CAVOK



MET'MAP, your aeronautical weather chart ! - Copyright ORBIFLY December 2007 - Disclaimer

ORBIFLY MET'MAP TEAM :

Programming & Development : Alexandra Zaïnal
Concept & original design : Baudouin d'Aumeries
Assistance for programming : Marc-Olivier Méhu
Technical & hardware support : Manuel Goepfert

Contact : metmap@orbifly.com




SOURCES & CREDITS :

   NOAA